Time;durP1;ratioP1;P1;durP2;ratioP2;P2;SDS_P1;SDS_P2;PMS_P1;PMS_P2;Temp;Humidity;BMP_temperature;BMP_pressure;BME280_temperature;BME280_humidity;BME280_pressure;Samples;Min_cycle;Max_cycle;Signal;HPM_P1;HPM_P2
2021/03/07 06:00:49;;;;;;;0.10;0.10;;;;;;;;;;5075171;28;20411;-55
2021/03/07 06:03:15;;;;;;;0.20;0.20;;;;;;;;;;5072543;28;20033;-53
2021/03/07 06:05:41;;;;;;;0.20;0.20;;;;;;;;;;5068555;28;20589;-55
2021/03/07 06:08:07;;;;;;;0.20;0.20;;;;;;;;;;5068877;28;20068;-53
2021/03/07 06:10:34;;;;;;;0.28;0.28;;;;;;;;;;5070290;28;20058;-53
2021/03/07 06:13:00;;;;;;;0.30;0.30;;;;;;;;;;5065453;28;20033;-58
2021/03/07 06:15:27;;;;;;;0.40;0.40;;;;;;;;;;5070347;28;20441;-55
2021/03/07 06:17:53;;;;;;;2.08;1.98;;;;;;;;;;5070765;28;20051;-55
2021/03/07 06:20:20;;;;;;;0.28;0.28;;;;;;;;;;5065196;28;20565;-53
2021/03/07 06:22:57;;;;;;;1.50;1.40;;;;;;;;;;5067695;28;20623;-53
2021/03/07 06:25:23;;;;;;;0.30;0.30;;;;;;;;;;5064982;28;20021;-57
2021/03/07 06:27:50;;;;;;;0.40;0.40;;;;;;;;;;5047976;28;20050;-55
2021/03/07 06:30:17;;;;;;;0.32;0.32;;;;;;;;;;5071271;28;20040;-56
2021/03/07 06:32:50;;;;;;;0.65;0.65;;;;;;;;;;5067866;28;20115;-52
2021/03/07 06:35:19;;;;;;;0.50;0.50;;;;;;;;;;5067420;28;20021;-56
2021/03/07 06:37:52;;;;;;;0.40;0.40;;;;;;;;;;5066057;28;20119;-54
2021/03/07 06:40:24;;;;;;;0.30;0.30;;;;;;;;;;5064115;28;20028;-55
2021/03/07 06:42:50;;;;;;;3.97;3.10;;;;;;;;;;5047719;28;20048;-53
2021/03/07 06:45:17;;;;;;;0.77;0.77;;;;;;;;;;5071278;28;20494;-54
2021/03/07 06:47:53;;;;;;;1.55;1.08;;;;;;;;;;5067235;28;20107;-54
2021/03/07 06:50:20;;;;;;;0.45;0.45;;;;;;;;;;5064155;28;20036;-53
2021/03/07 06:52:50;;;;;;;10.02;6.20;;;;;;;;;;5068174;28;20025;-54
2021/03/07 06:55:17;;;;;;;0.40;0.40;;;;;;;;;;5066178;28;20112;-55
2021/03/07 06:57:43;;;;;;;3.50;2.78;;;;;;;;;;5064311;28;20549;-56
2021/03/07 07:00:10;;;;;;;7.03;5.97;;;;;;;;;;5065222;28;20045;-57
2021/03/07 07:02:36;;;;;;;1.65;1.33;;;;;;;;;;5049598;28;20025;-53
2021/03/07 07:05:02;;;;;;;0.65;0.65;;;;;;;;;;5049399;28;20481;-54
2021/03/07 07:07:29;;;;;;;2.05;1.95;;;;;;;;;;5050013;28;20391;-55
2021/03/07 07:10:00;;;;;;;1.15;1.15;;;;;;;;;;5049379;28;20521;-57
2021/03/07 07:12:28;;;;;;;1.58;1.48;;;;;;;;;;5052185;28;20558;-54
2021/03/07 07:15:06;;;;;;;2.00;1.85;;;;;;;;;;5050838;28;20024;-56
2021/03/07 07:17:32;;;;;;;0.68;0.68;;;;;;;;;;5048435;28;20056;-52
2021/03/07 07:19:59;;;;;;;0.30;0.30;;;;;;;;;;5049091;28;20033;-56
2021/03/07 07:22:25;;;;;;;0.32;0.32;;;;;;;;;;5049530;28;20029;-56
2021/03/07 07:24:51;;;;;;;1.75;1.65;;;;;;;;;;5049892;28;20040;-56
2021/03/07 07:27:17;;;;;;;0.40;0.40;;;;;;;;;;5052729;28;20029;-52
2021/03/07 07:29:43;;;;;;;1.00;1.00;;;;;;;;;;5049073;28;20060;-53
2021/03/07 07:32:12;;;;;;;1.30;1.30;;;;;;;;;;5048819;28;20128;-55
2021/03/07 07:34:44;;;;;;;0.40;0.40;;;;;;;;;;5048589;28;20029;-57
2021/03/07 07:37:13;;;;;;;2.65;2.55;;;;;;;;;;5057405;28;20029;-54
2021/03/07 07:39:39;;;;;;;0.30;0.30;;;;;;;;;;5051068;28;20037;-54
2021/03/07 07:42:18;;;;;;;0.50;0.50;;;;;;;;;;5051056;28;20160;-51
2021/03/07 07:44:44;;;;;;;0.50;0.50;;;;;;;;;;5049096;28;20072;-54
2021/03/07 07:47:10;;;;;;;0.47;0.47;;;;;;;;;;5048699;28;20044;-55
2021/03/07 07:49:50;;;;;;;0.40;0.40;;;;;;;;;;5051551;28;20035;-53
2021/03/07 07:52:22;;;;;;;0.30;0.30;;;;;;;;;;5058007;28;20033;-52
2021/03/07 07:54:58;;;;;;;0.30;0.30;;;;;;;;;;5056282;28;20032;-55
2021/03/07 07:57:35;;;;;;;0.63;0.63;;;;;;;;;;5059142;28;20024;-54
2021/03/07 08:00:03;;;;;;;0.30;0.30;;;;;;;;;;5048921;28;20056;-53
2021/03/07 08:02:42;;;;;;;0.40;0.40;;;;;;;;;;5048410;28;20173;-53
2021/03/07 08:05:21;;;;;;;0.30;0.30;;;;;;;;;;5049281;28;20482;-55
2021/03/07 08:08:02;;;;;;;1.17;1.17;;;;;;;;;;5049332;28;20498;-58
2021/03/07 08:10:54;;;;;;;0.20;0.20;;;;;;;;;;5048647;28;20116;-55
2021/03/07 08:13:29;;;;;;;0.20;0.20;;;;;;;;;;5045752;28;20045;-56
2021/03/07 08:15:56;;;;;;;;;;;;;;;;;;5033672;28;20061;-55
2021/03/07 08:18:22;;;;;;;0.28;0.28;;;;;;;;;;5051468;28;19916;-56
2021/03/07 08:20:49;;;;;;;0.65;0.50;;;;;;;;;;5050441;28;20070;-54
2021/03/07 08:23:16;;;;;;;1.85;1.85;;;;;;;;;;5048520;28;20037;-56
2021/03/07 08:25:51;;;;;;;0.20;0.20;;;;;;;;;;5048741;28;20111;-54
2021/03/07 08:28:30;;;;;;;0.30;0.30;;;;;;;;;;5049149;28;20021;-55
2021/03/07 08:31:03;;;;;;;0.30;0.30;;;;;;;;;;5033458;28;20033;-54
2021/03/07 08:33:35;;;;;;;0.20;0.20;;;;;;;;;;5050420;28;20430;-53
2021/03/07 08:36:08;;;;;;;0.20;0.20;;;;;;;;;;5049443;28;20037;-52
2021/03/07 08:38:34;;;;;;;0.20;0.20;;;;;;;;;;5048204;28;20079;-53
2021/03/07 08:41:00;;;;;;;0.20;0.20;;;;;;;;;;5048001;28;20028;-52
2021/03/07 08:43:28;;;;;;;0.30;0.30;;;;;;;;;;5048109;28;20037;-53
2021/03/07 08:46:03;;;;;;;0.22;0.22;;;;;;;;;;5048122;28;20402;-53
2021/03/07 08:48:30;;;;;;;0.50;0.50;;;;;;;;;;5050864;28;20491;-55
2021/03/07 08:50:57;;;;;;;0.20;0.20;;;;;;;;;;5049325;28;20495;-53
2021/03/07 08:53:30;;;;;;;1.88;1.65;;;;;;;;;;5047045;28;20031;-54
2021/03/07 08:55:56;;;;;;;20.58;11.07;;;;;;;;;;5048486;28;20048;-53
2021/03/07 08:58:23;;;;;;;4.40;4.03;;;;;;;;;;5045209;28;20488;-53
2021/03/07 09:00:50;;;;;;;11.45;7.57;;;;;;;;;;5049339;28;20051;-55
2021/03/07 09:03:20;;;;;;;8.90;6.45;;;;;;;;;;5048925;28;20033;-54
2021/03/07 09:05:47;;;;;;;4.70;4.25;;;;;;;;;;5049396;28;20025;-55
2021/03/07 09:08:13;;;;;;;6.10;4.75;;;;;;;;;;5047542;28;20017;-54
2021/03/07 09:10:44;;;;;;;0.98;0.98;;;;;;;;;;5049132;28;20035;-55
2021/03/07 09:13:12;;;;;;;8.80;7.55;;;;;;;;;;5047230;28;20115;-53
2021/03/07 09:15:39;;;;;;;2.05;1.95;;;;;;;;;;5049008;28;20013;-55
2021/03/07 09:18:06;;;;;;;7.22;4.40;;;;;;;;;;5049636;28;20028;-52
2021/03/07 09:20:45;;;;;;;5.38;1.48;;;;;;;;;;5048000;28;20406;-55
2021/03/07 09:23:28;;;;;;;6.97;4.95;;;;;;;;;;5047577;28;20086;-55
2021/03/07 09:25:54;;;;;;;0.20;0.20;;;;;;;;;;5045106;28;20770;-55
2021/03/07 09:28:34;;;;;;;3.97;3.22;;;;;;;;;;5048101;28;20382;-52
2021/03/07 09:31:01;;;;;;;2.78;2.58;;;;;;;;;;5046308;28;20025;-55
2021/03/07 09:33:28;;;;;;;3.40;2.88;;;;;;;;;;5049403;28;20036;-53
2021/03/07 09:36:01;;;;;;;12.45;8.65;;;;;;;;;;5050857;28;20574;-51
2021/03/07 09:38:38;;;;;;;6.68;4.28;;;;;;;;;;5047601;28;20025;-54
2021/03/07 09:41:04;;;;;;;5.75;4.97;;;;;;;;;;5047681;28;20528;-54
2021/03/07 09:43:31;;;;;;;13.75;8.13;;;;;;;;;;5047316;28;20044;-55
2021/03/07 09:45:57;;;;;;;10.57;6.28;;;;;;;;;;5047522;28;20037;-53
2021/03/07 09:48:31;;;;;;;4.03;3.60;;;;;;;;;;5050366;28;20071;-54
2021/03/07 09:50:58;;;;;;;7.30;5.30;;;;;;;;;;5048327;28;20108;-56
2021/03/07 09:53:24;;;;;;;4.68;3.92;;;;;;;;;;5046697;28;20036;-56
2021/03/07 09:55:50;;;;;;;7.18;5.93;;;;;;;;;;5047044;28;20495;-55
2021/03/07 09:58:16;;;;;;;22.10;3.45;;;;;;;;;;5046278;28;20410;-56
2021/03/07 10:00:52;;;;;;;5.50;3.50;;;;;;;;;;5048155;28;20131;-52
2021/03/07 10:03:22;;;;;;;11.55;7.07;;;;;;;;;;5046084;28;20025;-54
2021/03/07 10:06:07;;;;;;;10.15;7.40;;;;;;;;;;5049217;28;20032;-55
2021/03/07 10:08:34;;;;;;;8.25;4.05;;;;;;;;;;5041466;28;20025;-56
2021/03/07 10:11:32;;;;;;;10.57;6.60;;;;;;;;;;5032135;28;20506;-54
2021/03/07 10:13:59;;;;;;;15.30;9.25;;;;;;;;;;5007844;28;20084;-52
2021/03/07 10:16:26;;;;;;;9.63;6.60;;;;;;;;;;5007790;28;20072;-55
2021/03/07 10:19:06;;;;;;;14.73;8.13;;;;;;;;;;4992673;28;20321;-54
2021/03/07 10:21:33;;;;;;;15.48;6.45;;;;;;;;;;5005951;28;20554;-55
2021/03/07 10:24:13;;;;;;;2.28;2.17;;;;;;;;;;5008721;28;20121;-56
2021/03/07 10:26:40;;;;;;;9.93;6.07;;;;;;;;;;5007645;28;20026;-52
2021/03/07 10:29:25;;;;;;;10.13;8.35;;;;;;;;;;4988629;28;20420;-55
2021/03/07 10:32:18;;;;;;;18.20;11.32;;;;;;;;;;5008003;28;20077;-52
2021/03/07 10:34:48;;;;;;;22.80;11.80;;;;;;;;;;5006897;28;20050;-52
2021/03/07 10:37:34;;;;;;;1.08;0.80;;;;;;;;;;5011216;28;20161;-52
2021/03/07 10:40:00;;;;;;;9.13;7.57;;;;;;;;;;5011429;28;20103;-55
2021/03/07 10:42:33;;;;;;;9.57;8.65;;;;;;;;;;5011104;28;20076;-55
2021/03/07 10:45:12;;;;;;;9.05;2.92;;;;;;;;;;5011795;28;20478;-54
2021/03/07 10:47:38;;;;;;;2.90;2.63;;;;;;;;;;5011735;28;20416;-56
2021/03/07 10:50:05;;;;;;;27.90;9.90;;;;;;;;;;5038742;28;20084;-52
2021/03/07 10:52:31;;;;;;;10.90;8.13;;;;;;;;;;5050410;28;20461;-55
2021/03/07 10:54:57;;;;;;;19.88;6.30;;;;;;;;;;5042693;28;20033;-55
2021/03/07 10:57:23;;;;;;;2.17;2.08;;;;;;;;;;5052916;28;20059;-53
2021/03/07 10:59:52;;;;;;;9.82;5.60;;;;;;;;;;5050497;28;20053;-53
2021/03/07 11:02:19;;;;;;;2.55;1.40;;;;;;;;;;5051095;28;20066;-56
2021/03/07 11:04:48;;;;;;;0.40;0.40;;;;;;;;;;5049049;28;20025;-55
2021/03/07 11:07:14;;;;;;;5.78;3.67;;;;;;;;;;5049184;28;20112;-52
2021/03/07 11:09:40;;;;;;;2.70;2.55;;;;;;;;;;5051289;28;20021;-54
2021/03/07 11:12:07;;;;;;;4.50;3.13;;;;;;;;;;5050728;28;20060;-52
2021/03/07 11:14:33;;;;;;;8.30;5.70;;;;;;;;;;5051502;28;20029;-56
2021/03/07 11:17:00;;;;;;;10.45;5.22;;;;;;;;;;5048968;28;20056;-51
2021/03/07 11:19:26;;;;;;;8.20;5.53;;;;;;;;;;5050071;28;20114;-55
2021/03/07 11:21:52;;;;;;;2.78;2.58;;;;;;;;;;5052046;28;20501;-52
2021/03/07 11:24:18;;;;;;;12.23;6.53;;;;;;;;;;5051905;28;20036;-52
2021/03/07 11:26:44;;;;;;;5.38;4.20;;;;;;;;;;5052163;28;20075;-54
2021/03/07 11:29:10;;;;;;;15.60;9.38;;;;;;;;;;5052043;28;20017;-53
2021/03/07 11:31:36;;;;;;;9.60;8.05;;;;;;;;;;5049570;28;20044;-53
2021/03/07 11:34:03;;;;;;;9.52;7.60;;;;;;;;;;5049761;28;20053;-53
2021/03/07 11:36:29;;;;;;;9.63;3.15;;;;;;;;;;5052250;28;20074;-52
2021/03/07 11:38:55;;;;;;;18.20;10.88;;;;;;;;;;5046105;28;20135;-54
2021/03/07 11:41:21;;;;;;;17.92;6.50;;;;;;;;;;5049907;28;20021;-53
2021/03/07 11:43:47;;;;;;;22.98;8.85;;;;;;;;;;5047904;28;20029;-52
2021/03/07 11:46:13;;;;;;;25.23;9.98;;;;;;;;;;5042642;28;20131;-51
2021/03/07 11:48:40;;;;;;;7.85;6.40;;;;;;;;;;5041393;28;20399;-54
2021/03/07 11:51:06;;;;;;;10.88;7.25;;;;;;;;;;5045517;28;20028;-52
2021/03/07 11:53:32;;;;;;;2.45;2.25;;;;;;;;;;5051388;28;20117;-55
2021/03/07 11:55:58;;;;;;;14.63;6.40;;;;;;;;;;5049464;28;20025;-52
2021/03/07 11:58:24;;;;;;;10.50;7.25;;;;;;;;;;5049607;28;20025;-52
2021/03/07 12:00:50;;;;;;;14.95;7.25;;;;;;;;;;5050012;28;20079;-52
2021/03/07 12:03:16;;;;;;;11.60;7.55;;;;;;;;;;5052781;28;20021;-54
2021/03/07 12:05:43;;;;;;;14.25;6.63;;;;;;;;;;5049891;28;20029;-55
2021/03/07 12:08:09;;;;;;;2.35;2.15;;;;;;;;;;5050267;28;20382;-51
2021/03/07 12:10:35;;;;;;;2.92;1.48;;;;;;;;;;5048311;28;20029;-53
2021/03/07 12:13:01;;;;;;;9.77;8.45;;;;;;;;;;5049145;28;20055;-55
2021/03/07 12:15:27;;;;;;;10.55;7.97;;;;;;;;;;5049911;28;20021;-55
2021/03/07 12:17:53;;;;;;;1.75;1.55;;;;;;;;;;5050141;28;20421;-52
2021/03/07 12:20:19;;;;;;;11.13;6.65;;;;;;;;;;5048156;28;20469;-54
2021/03/07 12:22:47;;;;;;;14.13;6.80;;;;;;;;;;5049879;28;20462;-53
2021/03/07 12:25:13;;;;;;;9.45;5.22;;;;;;;;;;5049635;28;20025;-54
2021/03/07 12:27:39;;;;;;;30.38;5.80;;;;;;;;;;5049661;28;20021;-52
2021/03/07 12:30:06;;;;;;;8.70;5.05;;;;;;;;;;5045184;28;20112;-54
2021/03/07 12:32:32;;;;;;;11.40;5.75;;;;;;;;;;5047139;28;20049;-60
2021/03/07 12:34:58;;;;;;;6.13;4.95;;;;;;;;;;5040150;28;20025;-55
2021/03/07 12:37:24;;;;;;;14.85;7.75;;;;;;;;;;5044880;28;20410;-52
2021/03/07 12:39:51;;;;;;;4.20;3.83;;;;;;;;;;5038621;28;20033;-52
2021/03/07 12:42:17;;;;;;;4.25;2.33;;;;;;;;;;5051186;28;20029;-52
2021/03/07 12:44:43;;;;;;;10.13;6.53;;;;;;;;;;5048021;28;20033;-55
2021/03/07 12:47:09;;;;;;;6.65;5.57;;;;;;;;;;5045339;28;20390;-55
2021/03/07 12:49:35;;;;;;;3.25;2.90;;;;;;;;;;5046525;28;20029;-55
2021/03/07 12:52:01;;;;;;;10.10;4.40;;;;;;;;;;5047717;28;20047;-52
2021/03/07 12:54:27;;;;;;;9.88;4.10;;;;;;;;;;5050690;28;20052;-52
2021/03/07 12:56:53;;;;;;;13.82;6.93;;;;;;;;;;5048272;28;20028;-51
2021/03/07 12:59:20;;;;;;;5.95;4.13;;;;;;;;;;5046565;28;20041;-55
2021/03/07 13:01:46;;;;;;;34.13;8.95;;;;;;;;;;5047564;28;20037;-53
2021/03/07 13:04:12;;;;;;;0.90;0.90;;;;;;;;;;5047092;28;20025;-55
2021/03/07 13:06:38;;;;;;;1.23;0.90;;;;;;;;;;5049456;28;20067;-55
2021/03/07 13:09:04;;;;;;;3.45;1.95;;;;;;;;;;5044486;28;20435;-54
2021/03/07 13:11:31;;;;;;;4.13;3.67;;;;;;;;;;5045231;28;20481;-54
2021/03/07 13:13:57;;;;;;;10.90;6.85;;;;;;;;;;5047055;28;20037;-57
2021/03/07 13:16:23;;;;;;;0.63;0.63;;;;;;;;;;5047053;28;20052;-55
2021/03/07 13:18:50;;;;;;;3.30;2.72;;;;;;;;;;5045518;28;20041;-53
2021/03/07 13:21:16;;;;;;;1.95;1.15;;;;;;;;;;5049196;28;20482;-50
2021/03/07 13:23:42;;;;;;;13.95;4.32;;;;;;;;;;5046411;28;20555;-54
2021/03/07 13:26:08;;;;;;;0.77;0.77;;;;;;;;;;5042804;28;20029;-53
2021/03/07 13:28:34;;;;;;;6.50;3.97;;;;;;;;;;5039554;28;20112;-54
2021/03/07 13:31:00;;;;;;;2.90;1.58;;;;;;;;;;5031180;28;20388;-54
2021/03/07 13:33:26;;;;;;;10.98;7.00;;;;;;;;;;5032622;28;20032;-56
2021/03/07 13:35:53;;;;;;;5.53;4.30;;;;;;;;;;5035459;28;20025;-53
2021/03/07 13:38:19;;;;;;;8.10;5.32;;;;;;;;;;5034918;28;20061;-53
2021/03/07 13:40:45;;;;;;;7.53;4.88;;;;;;;;;;5034939;28;20035;-53
2021/03/07 13:43:11;;;;;;;10.80;8.13;;;;;;;;;;5034598;28;20092;-52
2021/03/07 13:45:38;;;;;;;13.73;8.70;;;;;;;;;;5032768;28;20048;-53
2021/03/07 13:48:04;;;;;;;18.23;10.48;;;;;;;;;;5033936;28;20052;-55
2021/03/07 13:50:31;;;;;;;9.43;5.38;;;;;;;;;;5039751;28;20021;-55
2021/03/07 13:52:58;;;;;;;1.52;1.48;;;;;;;;;;5042721;28;20025;-55
2021/03/07 13:55:25;;;;;;;7.63;5.10;;;;;;;;;;5044976;28;20029;-53
2021/03/07 13:57:51;;;;;;;8.10;4.85;;;;;;;;;;5046888;28;20033;-56
2021/03/07 14:00:17;;;;;;;12.77;3.42;;;;;;;;;;5050564;28;20151;-55
2021/03/07 14:02:43;;;;;;;3.45;2.17;;;;;;;;;;5047412;28;20104;-55
2021/03/07 14:05:10;;;;;;;3.60;2.88;;;;;;;;;;5047100;28;20021;-57
2021/03/07 14:07:37;;;;;;;3.75;3.28;;;;;;;;;;5049295;28;20483;-55
2021/03/07 14:10:05;;;;;;;12.23;6.82;;;;;;;;;;5048156;28;20070;-54
2021/03/07 14:12:31;;;;;;;20.75;8.10;;;;;;;;;;5052994;28;20021;-56
2021/03/07 14:14:57;;;;;;;5.90;4.35;;;;;;;;;;5051989;28;20546;-55
2021/03/07 14:17:23;;;;;;;3.13;2.92;;;;;;;;;;5051366;28;20117;-55
2021/03/07 14:19:50;;;;;;;5.38;3.38;;;;;;;;;;5050974;28;20029;-54
2021/03/07 14:22:16;;;;;;;5.32;4.22;;;;;;;;;;5052554;28;20036;-55
2021/03/07 14:24:42;;;;;;;10.77;6.05;;;;;;;;;;5052637;28;20024;-53
2021/03/07 14:27:08;;;;;;;3.33;2.45;;;;;;;;;;5053392;28;20036;-55
2021/03/07 14:29:34;;;;;;;3.40;2.38;;;;;;;;;;5050876;28;20024;-56
2021/03/07 14:32:00;;;;;;;8.45;4.00;;;;;;;;;;5051082;28;20025;-54
2021/03/07 14:34:27;;;;;;;6.28;4.13;;;;;;;;;;5051043;28;20036;-54
2021/03/07 14:36:53;;;;;;;5.88;2.10;;;;;;;;;;5051259;28;20025;-56
2021/03/07 14:39:19;;;;;;;8.02;5.65;;;;;;;;;;5049569;28;20044;-53
2021/03/07 14:41:46;;;;;;;12.05;6.53;;;;;;;;;;5050869;28;20025;-55
2021/03/07 14:44:12;;;;;;;12.05;8.57;;;;;;;;;;5051059;28;20108;-57
2021/03/07 14:46:38;;;;;;;8.77;5.43;;;;;;;;;;5050724;28;20043;-56
2021/03/07 14:49:05;;;;;;;9.57;6.00;;;;;;;;;;5051244;28;20025;-55
2021/03/07 14:51:32;;;;;;;13.38;5.95;;;;;;;;;;5049518;28;20029;-54
2021/03/07 14:53:58;;;;;;;20.92;4.68;;;;;;;;;;5053340;28;20024;-54
2021/03/07 14:56:24;;;;;;;8.00;4.88;;;;;;;;;;5050292;28;20445;-54
2021/03/07 14:58:50;;;;;;;9.10;5.72;;;;;;;;;;5050853;28;20057;-56
2021/03/07 15:01:16;;;;;;;2.38;1.77;;;;;;;;;;5049947;28;20497;-55
2021/03/07 15:03:42;;;;;;;11.32;5.00;;;;;;;;;;5052243;28;20025;-55
2021/03/07 15:06:08;;;;;;;6.25;3.40;;;;;;;;;;5052453;28;20028;-55
2021/03/07 15:08:34;;;;;;;18.90;7.38;;;;;;;;;;5050670;28;20051;-53
2021/03/07 15:11:00;;;;;;;9.00;5.88;;;;;;;;;;5050317;28;20029;-56
2021/03/07 15:13:26;;;;;;;7.10;4.15;;;;;;;;;;5050103;28;20045;-54
2021/03/07 15:15:53;;;;;;;11.73;7.28;;;;;;;;;;5049155;28;20059;-52
2021/03/07 15:18:19;;;;;;;9.57;5.40;;;;;;;;;;5048615;28;20074;-55
2021/03/07 15:20:45;;;;;;;21.98;6.70;;;;;;;;;;5049842;28;20108;-53
2021/03/07 15:23:11;;;;;;;10.13;4.35;;;;;;;;;;5049136;28;20066;-53
2021/03/07 15:25:37;;;;;;;9.55;4.82;;;;;;;;;;5049638;28;20040;-55
2021/03/07 15:28:03;;;;;;;3.17;2.10;;;;;;;;;;5046256;28;20394;-54
2021/03/07 15:30:29;;;;;;;10.38;4.47;;;;;;;;;;5051875;28;20032;-53
2021/03/07 15:32:55;;;;;;;16.65;8.20;;;;;;;;;;5051993;28;20510;-56
2021/03/07 15:35:22;;;;;;;9.73;6.13;;;;;;;;;;5049762;28;20025;-55
2021/03/07 15:37:48;;;;;;;10.68;5.30;;;;;;;;;;5049370;28;20057;-55
2021/03/07 15:40:14;;;;;;;12.98;6.45;;;;;;;;;;5051372;28;20044;-55
2021/03/07 15:42:41;;;;;;;10.95;6.57;;;;;;;;;;5049825;28;20021;-56
2021/03/07 15:45:09;;;;;;;11.77;4.70;;;;;;;;;;5050589;28;20503;-52
2021/03/07 15:47:35;;;;;;;8.88;4.82;;;;;;;;;;5049571;28;20017;-54
2021/03/07 15:50:02;;;;;;;11.23;5.40;;;;;;;;;;5049413;28;20071;-48
2021/03/07 15:52:28;;;;;;;9.75;7.43;;;;;;;;;;5045886;28;20032;-72
2021/03/07 15:54:55;;;;;;;6.40;4.45;;;;;;;;;;5049713;28;20409;-66
2021/03/07 15:57:21;;;;;;;4.90;4.32;;;;;;;;;;5052201;28;20568;-72
2021/03/07 15:59:47;;;;;;;27.23;8.27;;;;;;;;;;5048471;28;20045;-72
2021/03/07 16:02:13;;;;;;;26.30;4.10;;;;;;;;;;5047880;28;20056;-71
2021/03/07 16:04:39;;;;;;;13.23;7.20;;;;;;;;;;5045238;28;20040;-73
2021/03/07 16:07:05;;;;;;;3.03;2.58;;;;;;;;;;5048295;28;20028;-74
2021/03/07 16:09:31;;;;;;;9.43;3.03;;;;;;;;;;5049789;28;20040;-73
2021/03/07 16:11:59;;;;;;;12.93;5.68;;;;;;;;;;5042114;28;20034;-60
2021/03/07 16:14:25;;;;;;;15.63;6.22;;;;;;;;;;5036812;28;20025;-60
2021/03/07 16:16:51;;;;;;;3.33;2.20;;;;;;;;;;5034799;28;20021;-63
2021/03/07 16:19:17;;;;;;;6.40;4.13;;;;;;;;;;5037667;28;20039;-69
2021/03/07 16:21:44;;;;;;;12.07;5.22;;;;;;;;;;5034322;28;20514;-75
2021/03/07 16:24:10;;;;;;;3.47;2.38;;;;;;;;;;5034113;28;20059;-69
2021/03/07 16:26:36;;;;;;;8.05;4.25;;;;;;;;;;5037646;28;20032;-58
2021/03/07 16:29:03;;;;;;;5.63;2.95;;;;;;;;;;5035158;28;20033;-71
2021/03/07 16:31:29;;;;;;;10.73;5.07;;;;;;;;;;5037208;28;20399;-61
2021/03/07 16:33:55;;;;;;;11.50;5.00;;;;;;;;;;5046768;28;20035;-61
2021/03/07 16:36:21;;;;;;;8.93;5.05;;;;;;;;;;5032858;28;20487;-54
2021/03/07 16:38:47;;;;;;;3.08;2.75;;;;;;;;;;5034068;28;20576;-55
2021/03/07 16:41:13;;;;;;;7.97;3.75;;;;;;;;;;5043273;28;20024;-56
2021/03/07 16:43:39;;;;;;;2.67;2.45;;;;;;;;;;5047784;28;20399;-58
2021/03/07 16:46:06;;;;;;;2.72;2.42;;;;;;;;;;5048083;28;20029;-58
2021/03/07 16:48:32;;;;;;;8.90;4.85;;;;;;;;;;5050072;28;20457;-58
2021/03/07 16:50:58;;;;;;;4.93;2.88;;;;;;;;;;5049116;28;20040;-58
2021/03/07 16:53:24;;;;;;;1.45;1.13;;;;;;;;;;5041105;28;20132;-58
2021/03/07 16:55:50;;;;;;;8.13;4.50;;;;;;;;;;5040554;28;20446;-58
2021/03/07 16:58:16;;;;;;;2.60;1.15;;;;;;;;;;5047122;28;20471;-58
2021/03/07 17:00:42;;;;;;;2.20;2.00;;;;;;;;;;5038368;28;20045;-58
2021/03/07 17:03:09;;;;;;;11.45;4.47;;;;;;;;;;5032458;28;20018;-57
2021/03/07 17:05:35;;;;;;;8.95;6.68;;;;;;;;;;5033614;28;20036;-58
2021/03/07 17:08:02;;;;;;;3.65;3.33;;;;;;;;;;5034468;28;20128;-60
2021/03/07 17:10:28;;;;;;;8.35;5.60;;;;;;;;;;5033644;28;20021;-58
2021/03/07 17:12:54;;;;;;;14.30;5.22;;;;;;;;;;5043075;28;20040;-58
2021/03/07 17:15:20;;;;;;;0.47;0.30;;;;;;;;;;5047966;28;20060;-58
2021/03/07 17:17:46;;;;;;;2.38;2.13;;;;;;;;;;5039525;28;20125;-58
2021/03/07 17:20:14;;;;;;;5.47;3.13;;;;;;;;;;5025467;28;20507;-59
2021/03/07 17:22:40;;;;;;;3.85;2.75;;;;;;;;;;5026582;28;20018;-58
2021/03/07 17:25:07;;;;;;;3.33;2.95;;;;;;;;;;5032641;28;20053;-59
2021/03/07 17:27:33;;;;;;;5.68;3.05;;;;;;;;;;5050415;28;20025;-56
2021/03/07 17:29:59;;;;;;;6.68;3.53;;;;;;;;;;5047698;28;20101;-58
2021/03/07 17:32:25;;;;;;;4.03;2.90;;;;;;;;;;5045668;28;20559;-58
2021/03/07 17:34:51;;;;;;;6.50;4.00;;;;;;;;;;5041454;28;20211;-57
2021/03/07 17:37:18;;;;;;;16.35;8.15;;;;;;;;;;5045663;28;20497;-58
2021/03/07 17:39:44;;;;;;;9.93;6.55;;;;;;;;;;5048208;28;20041;-57
2021/03/07 17:42:11;;;;;;;2.63;2.10;;;;;;;;;;5049627;28;20394;-59
2021/03/07 17:44:37;;;;;;;8.85;3.67;;;;;;;;;;5049542;28;20088;-58
2021/03/07 17:47:04;;;;;;;3.30;2.67;;;;;;;;;;5046391;28;20037;-58
2021/03/07 17:49:30;;;;;;;4.82;3.60;;;;;;;;;;5047591;28;20043;-59
2021/03/07 17:51:56;;;;;;;7.40;5.03;;;;;;;;;;5040748;28;20021;-58
2021/03/07 17:54:22;;;;;;;6.05;3.72;;;;;;;;;;5066664;28;20031;-58
2021/03/07 17:56:48;;;;;;;1.13;1.13;;;;;;;;;;5048455;28;20024;-59
2021/03/07 17:59:15;;;;;;;2.10;1.65;;;;;;;;;;5049808;28;20065;-58
2021/03/07 18:01:41;;;;;;;2.75;1.83;;;;;;;;;;5049656;28;20222;-59
2021/03/07 18:04:07;;;;;;;7.63;4.35;;;;;;;;;;5047668;28;20029;-58
2021/03/07 18:06:33;;;;;;;6.28;2.85;;;;;;;;;;5049995;28;20110;-58
2021/03/07 18:09:00;;;;;;;3.80;2.83;;;;;;;;;;5046098;28;20052;-59
2021/03/07 18:11:26;;;;;;;7.47;2.63;;;;;;;;;;5046716;28;20118;-58
2021/03/07 18:13:52;;;;;;;6.85;2.85;;;;;;;;;;5046389;28;20136;-58
2021/03/07 18:16:18;;;;;;;11.10;5.90;;;;;;;;;;5049295;28;20124;-59
2021/03/07 18:18:44;;;;;;;9.77;4.38;;;;;;;;;;5046963;28;20037;-59
2021/03/07 18:21:10;;;;;;;4.22;2.67;;;;;;;;;;5050800;28;20099;-59
2021/03/07 18:23:36;;;;;;;4.63;2.88;;;;;;;;;;5045947;28;20123;-58
2021/03/07 18:26:03;;;;;;;2.72;1.65;;;;;;;;;;5047453;28;20060;-59
2021/03/07 18:28:29;;;;;;;1.02;1.00;;;;;;;;;;5048656;28;20493;-59
2021/03/07 18:30:56;;;;;;;5.78;4.60;;;;;;;;;;5047455;28;20037;-59
2021/03/07 18:33:22;;;;;;;5.43;3.60;;;;;;;;;;5054470;28;20013;-59
2021/03/07 18:35:48;;;;;;;11.52;4.93;;;;;;;;;;5048924;28;20033;-59
2021/03/07 18:38:15;;;;;;;1.42;1.33;;;;;;;;;;5046443;28;20033;-59
2021/03/07 18:40:41;;;;;;;5.80;2.17;;;;;;;;;;5048327;28;20116;-59
2021/03/07 18:43:07;;;;;;;4.82;3.45;;;;;;;;;;5046641;28;20057;-59
2021/03/07 18:45:33;;;;;;;3.70;1.92;;;;;;;;;;5047725;28;20029;-59
2021/03/07 18:48:00;;;;;;;13.48;2.45;;;;;;;;;;5046853;28;20434;-59
2021/03/07 18:50:27;;;;;;;1.98;1.88;;;;;;;;;;5045913;28;20032;-59
2021/03/07 18:52:54;;;;;;;3.88;1.60;;;;;;;;;;5045706;28;20104;-59
2021/03/07 18:55:26;;;;;;;0.47;0.43;;;;;;;;;;5045584;28;20086;-59
2021/03/07 18:57:53;;;;;;;1.73;1.40;;;;;;;;;;5033049;28;20033;-59
2021/03/07 19:00:19;;;;;;;3.33;2.47;;;;;;;;;;5049530;28;20503;-59
2021/03/07 19:02:47;;;;;;;6.20;2.78;;;;;;;;;;5050354;28;20025;-59
2021/03/07 19:05:13;;;;;;;5.55;4.18;;;;;;;;;;5049316;28;20451;-59
2021/03/07 19:07:41;;;;;;;1.60;1.50;;;;;;;;;;5049573;28;20391;-59
2021/03/07 19:10:15;;;;;;;1.90;1.35;;;;;;;;;;5048762;28;20029;-59
2021/03/07 19:12:45;;;;;;;1.98;1.30;;;;;;;;;;5048813;28;20091;-59
2021/03/07 19:15:14;;;;;;;4.22;3.13;;;;;;;;;;5050756;28;20139;-59
2021/03/07 19:17:40;;;;;;;0.50;0.50;;;;;;;;;;5051662;28;20096;-59
2021/03/07 19:20:07;;;;;;;11.50;4.22;;;;;;;;;;5050284;28;20029;-60
2021/03/07 19:22:34;;;;;;;0.73;0.73;;;;;;;;;;5050230;28;20107;-59
2021/03/07 19:25:01;;;;;;;2.53;2.28;;;;;;;;;;5048822;28;20063;-60
2021/03/07 19:27:27;;;;;;;0.75;0.73;;;;;;;;;;5052078;28;20064;-59
2021/03/07 19:29:54;;;;;;;2.55;2.17;;;;;;;;;;5052378;28;20036;-59
2021/03/07 19:32:20;;;;;;;4.88;3.30;;;;;;;;;;5052451;28;20021;-60
2021/03/07 19:34:47;;;;;;;4.30;2.60;;;;;;;;;;5049244;28;20037;-59
2021/03/07 19:37:15;;;;;;;4.82;2.67;;;;;;;;;;5050811;28;20137;-60
2021/03/07 19:40:03;;;;;;;0.52;0.52;;;;;;;;;;5045931;28;20037;-69
2021/03/07 19:42:31;;;;;;;7.07;4.75;;;;;;;;;;5044963;28;20036;-60
2021/03/07 19:45:17;;;;;;;5.32;2.10;;;;;;;;;;5043213;28;20044;-59
2021/03/07 19:48:02;;;;;;;6.57;3.53;;;;;;;;;;5048475;28;20036;-60
2021/03/07 19:50:28;;;;;;;4.30;2.08;;;;;;;;;;5066115;28;20021;-60
2021/03/07 19:52:58;;;;;;;2.25;1.50;;;;;;;;;;5045715;28;20021;-56
2021/03/07 19:55:25;;;;;;;0.40;0.40;;;;;;;;;;5048967;28;20056;-66
2021/03/07 19:57:54;;;;;;;3.30;2.50;;;;;;;;;;5047821;28;20036;-61
2021/03/07 20:00:25;;;;;;;1.50;0.88;;;;;;;;;;5050393;28;20057;-60
2021/03/07 20:02:51;;;;;;;5.32;2.47;;;;;;;;;;5051834;28;20071;-61
2021/03/07 20:05:36;;;;;;;4.85;2.97;;;;;;;;;;5042260;28;20032;-61
2021/03/07 20:08:04;;;;;;;2.78;1.67;;;;;;;;;;5044684;28;20029;-61
2021/03/07 20:10:30;;;;;;;1.90;1.80;;;;;;;;;;5047446;28;20029;-60
2021/03/07 20:13:03;;;;;;;1.90;1.58;;;;;;;;;;5045278;28;20424;-60
2021/03/07 20:15:30;;;;;;;4.13;2.95;;;;;;;;;;5048957;28;20058;-59
2021/03/07 20:17:57;;;;;;;0.60;0.60;;;;;;;;;;5045666;28;20065;-60
2021/03/07 20:20:24;;;;;;;6.07;3.83;;;;;;;;;;5046451;28;20067;-60
2021/03/07 20:22:50;;;;;;;8.70;4.13;;;;;;;;;;5047428;28;20059;-60
2021/03/07 20:25:19;;;;;;;2.15;1.88;;;;;;;;;;5046011;28;20021;-60
2021/03/07 20:27:45;;;;;;;0.75;0.75;;;;;;;;;;5047337;28;20167;-60
2021/03/07 20:30:12;;;;;;;7.28;2.65;;;;;;;;;;5049588;28;20029;-60
2021/03/07 20:32:39;;;;;;;7.28;4.70;;;;;;;;;;5047983;28;20021;-61
2021/03/07 20:35:09;;;;;;;7.47;4.93;;;;;;;;;;5047940;28;20029;-60
2021/03/07 20:37:36;;;;;;;2.58;2.22;;;;;;;;;;5046587;28;20039;-59
2021/03/07 20:40:12;;;;;;;1.02;0.95;;;;;;;;;;5047035;28;20044;-61
2021/03/07 20:42:44;;;;;;;5.13;2.65;;;;;;;;;;5047381;28;20116;-60
2021/03/07 20:45:16;;;;;;;0.80;0.80;;;;;;;;;;5047651;28;20044;-60